Time;durP1;ratioP1;P1;durP2;ratioP2;P2;SDS_P1;SDS_P2;PMS_P1;PMS_P2;Temp;Humidity;BMP_temperature;BMP_pressure;BME280_temperature;BME280_humidity;BME280_pressure;Samples;Min_cycle;Max_cycle;Signal;HPM_P1;HPM_P2
2024/03/07 00:01:50;;;;;;;12.95;3.17;;;;;;;;;;4787292;30;20139;-83
2024/03/07 00:04:20;;;;;;;10.48;2.80;;;;;;;;;;4786653;29;20055;-82
2024/03/07 00:06:51;;;;;;;9.50;2.53;;;;;;;;;;4786899;30;20059;-83
2024/03/07 00:09:24;;;;;;;8.38;3.05;;;;;;;;;;4786643;30;20059;-82
2024/03/07 00:11:54;;;;;;;11.45;2.47;;;;;;;;;;4786327;30;20542;-82
2024/03/07 00:14:28;;;;;;;9.93;3.00;;;;;;;;;;4787036;30;20424;-82
2024/03/07 00:17:04;;;;;;;6.18;2.70;;;;;;;;;;4786585;30;20557;-83
2024/03/07 00:19:42;;;;;;;9.95;2.67;;;;;;;;;;4786524;30;20064;-85
2024/03/07 00:22:12;;;;;;;9.82;2.90;;;;;;;;;;4786667;29;20064;-83
2024/03/07 00:24:42;;;;;;;10.68;3.10;;;;;;;;;;4816375;29;20065;-85
2024/03/07 00:27:15;;;;;;;9.40;3.45;;;;;;;;;;4840133;29;20421;-84
2024/03/07 00:29:52;;;;;;;10.60;2.67;;;;;;;;;;4842459;29;20050;-82
2024/03/07 00:32:35;;;;;;;16.92;3.20;;;;;;;;;;4811778;29;20050;-83
2024/03/07 00:35:15;;;;;;;11.27;2.92;;;;;;;;;;4775327;29;20068;-81
2024/03/07 00:37:45;;;;;;;6.53;2.25;;;;;;;;;;4819867;29;20058;-82
2024/03/07 00:40:24;;;;;;;5.20;2.35;;;;;;;;;;4822535;29;20069;-85
2024/03/07 00:43:13;;;;;;;7.13;2.60;;;;;;;;;;4766146;30;20567;-85
2024/03/07 00:45:44;;;;;;;10.55;2.80;;;;;;;;;;4751155;30;20068;-83
2024/03/07 00:48:14;;;;;;;7.93;2.50;;;;;;;;;;4765960;30;20060;-83
2024/03/07 00:50:44;;;;;;;7.43;2.70;;;;;;;;;;4765775;30;20066;-83
2024/03/07 00:53:15;;;;;;;14.05;4.13;;;;;;;;;;4766495;30;20415;-84
2024/03/07 00:55:46;;;;;;;14.95;3.40;;;;;;;;;;4766277;30;20056;-83
2024/03/07 00:58:16;;;;;;;10.52;3.60;;;;;;;;;;4765995;30;20082;-83
2024/03/07 01:00:47;;;;;;;11.00;3.25;;;;;;;;;;4751108;30;20523;-82
2024/03/07 01:03:17;;;;;;;12.02;3.78;;;;;;;;;;4763958;30;20059;-83
2024/03/07 01:05:47;;;;;;;10.30;4.13;;;;;;;;;;4764974;30;20056;-82
2024/03/07 01:08:17;;;;;;;37.75;14.93;;;;;;;;;;4765918;30;20428;-82
2024/03/07 01:10:48;;;;;;;31.65;10.40;;;;;;;;;;4765740;30;20563;-82
2024/03/07 01:13:22;;;;;;;22.25;7.88;;;;;;;;;;4766210;30;20059;-83
2024/03/07 01:15:52;;;;;;;20.08;7.90;;;;;;;;;;4766043;30;20482;-82
2024/03/07 01:18:23;;;;;;;19.52;7.30;;;;;;;;;;4766188;30;20071;-83
2024/03/07 01:20:54;;;;;;;16.95;7.10;;;;;;;;;;4796732;29;20058;-84
2024/03/07 01:23:24;;;;;;;11.20;5.18;;;;;;;;;;4822655;29;20065;-84
2024/03/07 01:25:59;;;;;;;12.65;5.28;;;;;;;;;;4822505;29;20046;-82
2024/03/07 01:28:30;;;;;;;15.23;5.20;;;;;;;;;;4806576;29;20384;-83
2024/03/07 01:31:00;;;;;;;15.30;5.13;;;;;;;;;;4822443;29;20046;-82
2024/03/07 01:33:31;;;;;;;13.65;5.45;;;;;;;;;;4822107;29;20054;-82
2024/03/07 01:36:05;;;;;;;;;;;;;;;;;;4822258;29;20043;-85
2024/03/07 01:38:37;;;;;;;10.38;3.60;;;;;;;;;;4821982;29;19925;-82
2024/03/07 01:41:08;;;;;;;12.45;3.92;;;;;;;;;;4822172;29;20049;-82
2024/03/07 01:43:38;;;;;;;8.98;4.97;;;;;;;;;;4822080;29;20433;-84
2024/03/07 01:46:10;;;;;;;8.13;3.97;;;;;;;;;;4820638;29;20046;-82
2024/03/07 01:48:41;;;;;;;7.00;3.63;;;;;;;;;;4822360;29;20058;-82
2024/03/07 01:51:12;;;;;;;8.52;3.97;;;;;;;;;;4822019;29;20058;-82
2024/03/07 01:53:43;;;;;;;10.25;4.10;;;;;;;;;;4822890;29;20057;-82
2024/03/07 01:56:13;;;;;;;9.90;3.60;;;;;;;;;;4822762;29;20054;-81
2024/03/07 01:58:45;;;;;;;12.18;3.35;;;;;;;;;;4822518;29;20077;-83
2024/03/07 02:01:17;;;;;;;13.02;3.95;;;;;;;;;;4821780;29;20039;-82
2024/03/07 02:03:49;;;;;;;10.63;3.38;;;;;;;;;;4804961;29;20061;-83
2024/03/07 02:06:19;;;;;;;13.95;3.40;;;;;;;;;;4822073;29;20046;-82
2024/03/07 02:08:50;;;;;;;13.38;3.25;;;;;;;;;;4822696;29;20497;-82
2024/03/07 02:11:22;;;;;;;10.43;3.30;;;;;;;;;;4823453;29;20046;-82
2024/03/07 02:13:54;;;;;;;11.15;3.20;;;;;;;;;;4823578;29;20516;-82
2024/03/07 02:16:24;;;;;;;6.28;3.00;;;;;;;;;;4823157;29;20527;-82
2024/03/07 02:18:55;;;;;;;12.85;3.63;;;;;;;;;;4827653;29;20405;-83
2024/03/07 02:21:25;;;;;;;8.05;3.13;;;;;;;;;;4811160;29;20058;-82
2024/03/07 02:23:56;;;;;;;10.93;3.63;;;;;;;;;;4826747;29;20055;-84
2024/03/07 02:26:27;;;;;;;10.70;2.95;;;;;;;;;;4826820;29;20052;-82
2024/03/07 02:28:57;;;;;;;9.10;2.85;;;;;;;;;;4811136;29;20478;-84
2024/03/07 02:31:36;;;;;;;7.50;3.13;;;;;;;;;;4810853;29;20058;-83
2024/03/07 02:34:08;;;;;;;8.00;3.25;;;;;;;;;;4821988;29;20537;-81
2024/03/07 02:36:38;;;;;;;11.93;3.15;;;;;;;;;;4826541;29;20529;-82
2024/03/07 02:39:09;;;;;;;10.80;3.10;;;;;;;;;;4834692;29;20042;-83
2024/03/07 02:41:40;;;;;;;12.80;3.40;;;;;;;;;;4834188;29;20050;-84
2024/03/07 02:44:12;;;;;;;14.10;4.00;;;;;;;;;;4831064;29;20121;-83
2024/03/07 02:46:43;;;;;;;13.20;3.28;;;;;;;;;;4833180;29;20054;-85
2024/03/07 02:49:15;;;;;;;9.98;3.10;;;;;;;;;;4831557;29;20045;-84
2024/03/07 02:51:46;;;;;;;7.85;3.30;;;;;;;;;;4826722;29;20043;-84
2024/03/07 02:55:05;;;;;;;15.50;3.90;;;;;;;;;;4809643;29;20418;-83
2024/03/07 02:57:40;;;;;;;15.73;3.83;;;;;;;;;;4825235;29;20065;-82
2024/03/07 03:00:29;;;;;;;17.08;3.78;;;;;;;;;;4826685;29;20050;-84
2024/03/07 03:03:01;;;;;;;8.10;3.08;;;;;;;;;;4826184;29;20521;-85
2024/03/07 03:05:31;;;;;;;15.55;3.17;;;;;;;;;;4809260;29;20062;-83
2024/03/07 03:08:01;;;;;;;8.48;3.28;;;;;;;;;;4810710;29;20138;-82
2024/03/07 03:10:33;;;;;;;10.13;3.30;;;;;;;;;;4826016;29;20069;-82
2024/03/07 03:13:03;;;;;;;;;;;;;;;;;;4826517;29;20050;-83
2024/03/07 03:15:35;;;;;;;13.48;3.30;;;;;;;;;;4826332;29;20308;-83
2024/03/07 03:18:05;;;;;;;12.63;3.60;;;;;;;;;;4808861;29;20072;-82
2024/03/07 03:20:39;;;;;;;10.77;3.85;;;;;;;;;;4825773;29;20501;-81
2024/03/07 03:23:13;;;;;;;14.38;3.10;;;;;;;;;;4826021;29;20050;-81
2024/03/07 03:25:49;;;;;;;17.02;3.30;;;;;;;;;;4826115;29;20054;-82
2024/03/07 03:28:20;;;;;;;13.10;3.10;;;;;;;;;;4824744;29;20532;-83
2024/03/07 03:30:51;;;;;;;10.68;3.33;;;;;;;;;;4825791;29;20053;-82
2024/03/07 03:33:22;;;;;;;8.70;3.10;;;;;;;;;;4823332;29;20050;-84
2024/03/07 03:35:55;;;;;;;14.73;3.20;;;;;;;;;;4809916;29;20058;-82
2024/03/07 03:38:25;;;;;;;11.63;3.00;;;;;;;;;;4838894;29;20058;-83
2024/03/07 03:40:57;;;;;;;8.98;2.88;;;;;;;;;;4844123;29;20524;-83
2024/03/07 03:43:29;;;;;;;7.75;3.15;;;;;;;;;;4843888;29;20053;-84
2024/03/07 03:46:01;;;;;;;12.55;3.53;;;;;;;;;;4843727;29;20054;-82
2024/03/07 03:48:33;;;;;;;11.73;3.15;;;;;;;;;;4843756;29;20065;-84
2024/03/07 03:51:03;;;;;;;7.22;3.22;;;;;;;;;;4826436;29;20437;-84
2024/03/07 03:53:33;;;;;;;13.80;3.50;;;;;;;;;;4843781;29;20053;-83
2024/03/07 03:56:07;;;;;;;8.18;3.22;;;;;;;;;;4843559;29;20054;-86
2024/03/07 03:58:37;;;;;;;13.82;3.60;;;;;;;;;;4843572;29;20387;-83
2024/03/07 04:01:20;;;;;;;10.93;3.85;;;;;;;;;;4843581;29;20042;-85
2024/03/07 04:03:51;;;;;;;8.07;3.30;;;;;;;;;;4827922;29;20053;-82
2024/03/07 04:06:21;;;;;;;7.35;2.80;;;;;;;;;;4841466;29;20058;-86
2024/03/07 04:08:51;;;;;;;12.10;2.92;;;;;;;;;;4843530;29;20054;-84
2024/03/07 04:11:23;;;;;;;9.23;3.00;;;;;;;;;;4843217;29;20050;-81
2024/03/07 04:13:54;;;;;;;10.32;3.47;;;;;;;;;;4843325;29;20053;-84
2024/03/07 04:16:25;;;;;;;9.77;3.13;;;;;;;;;;4843242;29;20073;-85
2024/03/07 04:18:55;;;;;;;6.47;3.47;;;;;;;;;;4843194;29;20397;-83
2024/03/07 04:21:25;;;;;;;9.95;3.15;;;;;;;;;;4842986;29;20054;-85
2024/03/07 04:23:56;;;;;;;12.30;3.58;;;;;;;;;;4827142;29;20101;-83
2024/03/07 04:26:27;;;;;;;11.07;3.00;;;;;;;;;;4843031;29;20046;-83
2024/03/07 04:28:57;;;;;;;13.55;3.08;;;;;;;;;;4843012;29;20038;-84
2024/03/07 04:31:28;;;;;;;14.05;3.80;;;;;;;;;;4842965;29;20053;-84
2024/03/07 04:33:58;;;;;;;8.02;3.38;;;;;;;;;;4842827;29;20049;-83
2024/03/07 04:36:29;;;;;;;13.20;3.50;;;;;;;;;;4842822;29;20520;-83
2024/03/07 04:38:58;;;;;;;10.75;3.28;;;;;;;;;;4840820;29;20064;-83
2024/03/07 04:41:29;;;;;;;13.13;3.95;;;;;;;;;;4825261;29;20374;-84
2024/03/07 04:43:59;;;;;;;14.13;3.25;;;;;;;;;;4842664;29;20066;-82
2024/03/07 04:46:30;;;;;;;7.70;3.17;;;;;;;;;;4842777;29;20053;-84
2024/03/07 04:49:05;;;;;;;12.98;3.50;;;;;;;;;;4842390;29;20119;-84
2024/03/07 04:51:35;;;;;;;8.02;2.90;;;;;;;;;;4842324;29;20064;-82
2024/03/07 04:54:09;;;;;;;15.80;2.83;;;;;;;;;;4842942;29;20057;-83
2024/03/07 04:56:39;;;;;;;9.93;3.75;;;;;;;;;;4842668;29;20053;-83
2024/03/07 04:59:11;;;;;;;12.82;4.07;;;;;;;;;;4842616;29;20519;-83
2024/03/07 05:01:42;;;;;;;9.63;3.40;;;;;;;;;;4824392;29;20765;-83
2024/03/07 05:04:23;;;;;;;6.93;3.17;;;;;;;;;;4805905;29;20502;-83
2024/03/07 05:07:19;;;;;;;7.20;3.13;;;;;;;;;;4824197;29;20061;-83
2024/03/07 05:09:50;;;;;;;15.27;3.03;;;;;;;;;;4806177;29;20050;-84
2024/03/07 05:12:20;;;;;;;11.60;3.38;;;;;;;;;;4822353;29;20061;-85
2024/03/07 05:14:51;;;;;;;12.13;3.80;;;;;;;;;;4823962;29;20490;-83
2024/03/07 05:17:26;;;;;;;7.60;3.15;;;;;;;;;;4824417;29;20050;-84
2024/03/07 05:19:59;;;;;;;8.05;3.15;;;;;;;;;;4823809;29;20391;-83
2024/03/07 05:22:30;;;;;;;13.70;3.67;;;;;;;;;;4818457;29;20174;-83
2024/03/07 05:25:00;;;;;;;9.57;3.38;;;;;;;;;;4821921;29;20053;-83
2024/03/07 05:27:30;;;;;;;7.70;3.15;;;;;;;;;;4824194;29;20046;-83
2024/03/07 05:30:05;;;;;;;10.18;3.22;;;;;;;;;;4823583;29;20050;-83
2024/03/07 05:32:38;;;;;;;;;;;;;;;;;;4824273;29;20101;-83
2024/03/07 05:35:10;;;;;;;8.90;2.70;;;;;;;;;;4806208;29;19931;-84
2024/03/07 05:37:46;;;;;;;9.70;3.10;;;;;;;;;;4823471;29;20065;-83
2024/03/07 05:40:20;;;;;;;14.30;3.33;;;;;;;;;;4824131;29;20054;-83
2024/03/07 05:42:55;;;;;;;13.15;3.28;;;;;;;;;;4807245;29;20058;-84
2024/03/07 05:45:25;;;;;;;9.40;3.35;;;;;;;;;;4823787;29;20055;-84
2024/03/07 05:47:55;;;;;;;9.82;3.35;;;;;;;;;;4823790;29;20061;-82
2024/03/07 05:50:25;;;;;;;10.18;3.58;;;;;;;;;;4823693;29;20513;-83
2024/03/07 05:52:55;;;;;;;9.30;3.45;;;;;;;;;;4823345;29;20520;-83
2024/03/07 05:55:25;;;;;;;9.00;3.58;;;;;;;;;;4823767;29;20425;-83
2024/03/07 05:57:58;;;;;;;12.07;3.65;;;;;;;;;;4823827;29;20057;-84
2024/03/07 06:00:28;;;;;;;9.88;3.67;;;;;;;;;;4822303;29;20926;-83
2024/03/07 06:02:58;;;;;;;12.57;3.97;;;;;;;;;;4823790;29;20057;-82
2024/03/07 06:05:29;;;;;;;11.63;3.72;;;;;;;;;;4823985;29;20046;-82
2024/03/07 06:07:59;;;;;;;8.98;3.40;;;;;;;;;;4807751;29;20062;-83
2024/03/07 06:10:29;;;;;;;10.90;3.63;;;;;;;;;;4823293;29;20050;-83
2024/03/07 06:12:59;;;;;;;12.18;3.67;;;;;;;;;;4823121;29;20058;-81
2024/03/07 06:15:39;;;;;;;13.10;3.70;;;;;;;;;;4823387;29;20042;-81
2024/03/07 06:18:13;;;;;;;11.98;3.60;;;;;;;;;;4823413;29;20047;-81
2024/03/07 06:20:44;;;;;;;7.28;3.30;;;;;;;;;;4823405;29;20114;-81
2024/03/07 06:23:16;;;;;;;11.25;3.38;;;;;;;;;;4822912;29;20050;-81
2024/03/07 06:25:47;;;;;;;;;;;;;;;;;;4823657;29;20077;-81
2024/03/07 06:28:18;;;;;;;12.20;3.65;;;;;;;;;;4823637;29;20296;-82
2024/03/07 06:30:49;;;;;;;14.13;3.10;;;;;;;;;;4823437;29;20050;-81
2024/03/07 06:33:20;;;;;;;16.17;3.58;;;;;;;;;;4823430;29;20054;-82
2024/03/07 06:35:55;;;;;;;11.38;3.15;;;;;;;;;;4823328;29;20054;-80
2024/03/07 06:38:28;;;;;;;11.35;3.97;;;;;;;;;;4823691;29;20379;-81
2024/03/07 06:41:01;;;;;;;9.68;3.53;;;;;;;;;;4822722;29;20045;-80
2024/03/07 06:43:32;;;;;;;10.35;3.60;;;;;;;;;;4823362;29;20046;-81
2024/03/07 06:46:02;;;;;;;12.90;3.45;;;;;;;;;;4830623;29;20065;-79
2024/03/07 06:48:33;;;;;;;10.13;3.60;;;;;;;;;;4817410;29;20057;-80
2024/03/07 06:51:06;;;;;;;12.85;3.53;;;;;;;;;;4829272;29;20054;-82
2024/03/07 06:53:37;;;;;;;15.75;4.90;;;;;;;;;;4831908;29;20062;-80
2024/03/07 06:56:07;;;;;;;13.57;3.40;;;;;;;;;;4826886;29;20077;-81
2024/03/07 06:58:38;;;;;;;12.93;3.40;;;;;;;;;;4822639;29;20502;-80
2024/03/07 07:01:12;;;;;;;14.68;3.50;;;;;;;;;;4822922;29;20482;-81
2024/03/07 07:03:47;;;;;;;12.20;3.67;;;;;;;;;;4823904;29;20051;-82
2024/03/07 07:06:18;;;;;;;8.10;3.35;;;;;;;;;;4826304;29;20161;-82
2024/03/07 07:08:52;;;;;;;11.70;3.92;;;;;;;;;;4809196;29;20062;-82
2024/03/07 07:11:23;;;;;;;10.15;4.25;;;;;;;;;;4825934;29;20407;-81
2024/03/07 07:13:53;;;;;;;6.22;3.72;;;;;;;;;;4825754;29;20516;-81
2024/03/07 07:16:23;;;;;;;9.73;3.42;;;;;;;;;;4826022;29;20065;-81
2024/03/07 07:18:55;;;;;;;13.10;3.80;;;;;;;;;;4825796;29;20502;-81
2024/03/07 07:21:26;;;;;;;20.67;4.35;;;;;;;;;;4809299;29;20062;-81
2024/03/07 07:23:56;;;;;;;8.88;3.15;;;;;;;;;;4809352;29;20065;-82
2024/03/07 07:26:26;;;;;;;10.52;3.50;;;;;;;;;;4825691;29;20473;-81
2024/03/07 07:28:56;;;;;;;9.13;3.40;;;;;;;;;;4825543;29;20546;-81
2024/03/07 07:31:27;;;;;;;19.98;4.72;;;;;;;;;;4825504;29;20062;-80
2024/03/07 07:33:57;;;;;;;7.57;3.63;;;;;;;;;;4825326;29;20058;-80
2024/03/07 07:36:27;;;;;;;8.55;3.30;;;;;;;;;;4825233;29;20061;-81
2024/03/07 07:38:59;;;;;;;7.70;3.63;;;;;;;;;;4825486;29;20042;-81
2024/03/07 07:41:31;;;;;;;14.02;3.83;;;;;;;;;;4809115;29;20059;-82
2024/03/07 07:44:02;;;;;;;8.98;3.55;;;;;;;;;;4825505;29;20053;-81
2024/03/07 07:46:33;;;;;;;11.63;3.78;;;;;;;;;;4808850;29;20058;-80
2024/03/07 07:49:04;;;;;;;13.80;3.70;;;;;;;;;;4825645;29;20042;-81
2024/03/07 07:51:33;;;;;;;11.43;4.03;;;;;;;;;;4825458;29;20450;-82
2024/03/07 07:54:03;;;;;;;9.45;3.13;;;;;;;;;;4825303;29;20054;-82
2024/03/07 07:56:34;;;;;;;13.20;3.38;;;;;;;;;;4825158;29;20497;-81
2024/03/07 07:59:04;;;;;;;9.93;3.40;;;;;;;;;;4825099;29;20061;-81
2024/03/07 08:01:35;;;;;;;9.75;3.78;;;;;;;;;;4818166;29;20050;-81
2024/03/07 08:04:09;;;;;;;16.88;3.85;;;;;;;;;;4794078;29;20134;-81
2024/03/07 08:06:41;;;;;;;13.25;4.15;;;;;;;;;;4792079;29;20055;-80
2024/03/07 08:09:10;;;;;;;9.73;3.53;;;;;;;;;;4812361;29;20051;-81
2024/03/07 08:11:41;;;;;;;13.02;3.78;;;;;;;;;;4824638;29;20050;-81
2024/03/07 08:14:12;;;;;;;9.55;3.78;;;;;;;;;;4824963;29;20058;-81
2024/03/07 08:16:42;;;;;;;6.97;3.28;;;;;;;;;;4824782;29;20051;-82
2024/03/07 08:19:14;;;;;;;17.55;3.70;;;;;;;;;;4824780;29;20050;-83
2024/03/07 08:21:45;;;;;;;11.95;3.58;;;;;;;;;;4825129;29;20051;-81
2024/03/07 08:24:15;;;;;;;12.93;3.50;;;;;;;;;;4803383;29;20061;-81
2024/03/07 08:26:46;;;;;;;10.02;3.30;;;;;;;;;;4824966;29;20061;-81
2024/03/07 08:29:17;;;;;;;11.57;4.35;;;;;;;;;;4825268;29;20409;-81
2024/03/07 08:31:47;;;;;;;13.48;3.28;;;;;;;;;;4824871;29;20039;-81
2024/03/07 08:34:17;;;;;;;16.83;3.72;;;;;;;;;;4824634;29;20050;-81
2024/03/07 08:36:48;;;;;;;10.60;3.35;;;;;;;;;;4822073;29;20058;-81
2024/03/07 08:39:17;;;;;;;12.35;3.47;;;;;;;;;;4806416;29;20058;-82
2024/03/07 08:41:47;;;;;;;11.07;3.47;;;;;;;;;;4806455;29;20047;-83
2024/03/07 08:44:17;;;;;;;13.05;4.03;;;;;;;;;;4795477;29;20051;-81
2024/03/07 08:46:47;;;;;;;10.68;3.20;;;;;;;;;;4801941;29;20061;-82
2024/03/07 08:49:18;;;;;;;12.70;3.10;;;;;;;;;;4824216;29;20061;-81
2024/03/07 08:51:49;;;;;;;10.75;4.57;;;;;;;;;;4824486;29;20395;-81
2024/03/07 08:54:20;;;;;;;7.07;3.58;;;;;;;;;;4824498;29;20054;-81
2024/03/07 08:56:49;;;;;;;14.73;4.35;;;;;;;;;;4824538;29;20050;-81
2024/03/07 08:59:20;;;;;;;10.65;3.70;;;;;;;;;;4821769;29;20406;-83
2024/03/07 09:01:52;;;;;;;9.90;2.90;;;;;;;;;;4787413;30;20047;-82
2024/03/07 09:04:22;;;;;;;9.23;3.50;;;;;;;;;;4787827;30;20048;-83
2024/03/07 09:06:52;;;;;;;13.27;3.50;;;;;;;;;;4787946;29;20059;-82
2024/03/07 09:09:21;;;;;;;12.30;3.70;;;;;;;;;;4787640;30;20051;-81
2024/03/07 09:11:55;;;;;;;12.43;4.25;;;;;;;;;;4787563;29;20058;-81
2024/03/07 09:14:25;;;;;;;8.07;3.38;;;;;;;;;;4788252;29;20055;-81
2024/03/07 09:16:56;;;;;;;14.23;3.30;;;;;;;;;;4788082;30;20058;-82
2024/03/07 09:19:27;;;;;;;9.65;3.72;;;;;;;;;;4787949;29;20051;-81
2024/03/07 09:21:57;;;;;;;15.98;3.90;;;;;;;;;;4787553;30;20051;-80
2024/03/07 09:24:28;;;;;;;11.90;3.58;;;;;;;;;;4787196;29;20047;-81
2024/03/07 09:26:59;;;;;;;12.77;3.47;;;;;;;;;;4787088;29;20055;-82
2024/03/07 09:29:29;;;;;;;9.23;3.38;;;;;;;;;;4788246;30;20055;-82
2024/03/07 09:31:59;;;;;;;13.25;4.13;;;;;;;;;;4787341;29;20047;-82
2024/03/07 09:34:30;;;;;;;12.23;3.67;;;;;;;;;;4771869;30;20062;-82
2024/03/07 09:37:03;;;;;;;11.57;3.67;;;;;;;;;;4791615;29;20498;-81
2024/03/07 09:39:37;;;;;;;8.98;3.63;;;;;;;;;;4805643;29;20047;-83
2024/03/07 09:42:10;;;;;;;19.05;4.07;;;;;;;;;;4805398;29;20046;-81
2024/03/07 09:44:42;;;;;;;11.35;4.80;;;;;;;;;;4805674;29;20386;-81
2024/03/07 09:47:14;;;;;;;8.90;3.20;;;;;;;;;;4805931;29;20042;-80
2024/03/07 09:49:46;;;;;;;9.93;3.38;;;;;;;;;;4805267;29;20498;-82
2024/03/07 09:52:16;;;;;;;10.70;4.30;;;;;;;;;;4805740;29;20410;-81
2024/03/07 09:54:46;;;;;;;11.13;3.75;;;;;;;;;;4805653;29;20391;-84
2024/03/07 09:57:20;;;;;;;11.48;3.80;;;;;;;;;;4805482;29;20502;-82
2024/03/07 09:59:54;;;;;;;16.80;4.30;;;;;;;;;;4805267;29;20054;-82
2024/03/07 10:02:25;;;;;;;12.82;4.53;;;;;;;;;;4805428;29;20409;-83
2024/03/07 10:04:56;;;;;;;10.13;3.42;;;;;;;;;;4805477;29;20054;-82
2024/03/07 10:07:29;;;;;;;9.48;3.55;;;;;;;;;;4805466;29;20529;-82
2024/03/07 10:10:00;;;;;;;11.20;3.90;;;;;;;;;;4805232;29;20051;-82
2024/03/07 10:12:31;;;;;;;11.07;4.10;;;;;;;;;;4805073;29;20047;-83
2024/03/07 10:15:05;;;;;;;9.95;3.35;;;;;;;;;;4805483;29;20047;-82
2024/03/07 10:17:36;;;;;;;8.38;4.10;;;;;;;;;;4805652;29;20398;-83
2024/03/07 10:20:13;;;;;;;15.88;3.80;;;;;;;;;;4788874;29;20051;-83
2024/03/07 10:22:43;;;;;;;9.02;3.70;;;;;;;;;;4804820;29;20057;-82
2024/03/07 10:25:14;;;;;;;6.88;2.78;;;;;;;;;;4805590;29;20063;-81
2024/03/07 10:27:49;;;;;;;11.10;3.08;;;;;;;;;;4806428;29;20047;-81
2024/03/07 10:30:25;;;;;;;9.85;3.05;;;;;;;;;;4818782;29;20047;-81
2024/03/07 10:33:00;;;;;;;8.57;2.70;;;;;;;;;;4805536;29;20079;-82
2024/03/07 10:35:31;;;;;;;8.40;3.17;;;;;;;;;;4822027;29;20540;-82
2024/03/07 10:38:06;;;;;;;6.07;3.25;;;;;;;;;;4821157;29;20050;-82
2024/03/07 10:40:43;;;;;;;10.38;2.88;;;;;;;;;;4830109;29;20053;-83
2024/03/07 10:43:17;;;;;;;8.82;2.80;;;;;;;;;;4827981;29;20050;-83
2024/03/07 10:45:51;;;;;;;5.50;2.58;;;;;;;;;;4812284;29;20076;-83
2024/03/07 10:48:33;;;;;;;8.35;2.60;;;;;;;;;;4830725;29;20046;-82
2024/03/07 10:51:37;;;;;;;4.85;2.35;;;;;;;;;;4826031;29;20046;-83
2024/03/07 10:54:49;;;;;;;5.85;2.25;;;;;;;;;;4825827;29;20061;-83
2024/03/07 10:57:30;;;;;;;6.28;2.63;;;;;;;;;;4751485;30;20079;-82
2024/03/07 11:00:24;;;;;;;6.57;2.85;;;;;;;;;;4752166;30;20547;-83
2024/03/07 11:02:55;;;;;;;5.72;2.22;;;;;;;;;;4820211;29;20084;-84
2024/03/07 11:05:29;;;;;;;4.20;2.25;;;;;;;;;;4843615;29;20054;-82
2024/03/07 11:08:11;;;;;;;4.82;2.17;;;;;;;;;;4843956;29;20054;-83
2024/03/07 11:10:47;;;;;;;10.57;3.53;;;;;;;;;;4821631;29;20409;-84
2024/03/07 11:13:19;;;;;;;5.13;2.38;;;;;;;;;;4825078;29;20506;-87
2024/03/07 11:15:53;;;;;;;7.25;2.55;;;;;;;;;;4826319;29;20050;-83
2024/03/07 11:18:24;;;;;;;5.88;2.40;;;;;;;;;;4825931;29;20053;-83
2024/03/07 11:20:57;;;;;;;8.70;2.55;;;;;;;;;;4824514;29;20418;-84
2024/03/07 11:23:41;;;;;;;4.30;2.10;;;;;;;;;;4810273;29;20058;-85
2024/03/07 11:26:13;;;;;;;4.97;2.20;;;;;;;;;;4808889;29;20047;-82
2024/03/07 11:28:47;;;;;;;8.25;2.05;;;;;;;;;;4825615;29;20055;-83
2024/03/07 11:31:28;;;;;;;3.58;2.17;;;;;;;;;;4826414;29;20053;-83
2024/03/07 11:34:22;;;;;;;5.10;2.13;;;;;;;;;;4807774;29;20054;-84
2024/03/07 11:36:55;;;;;;;5.03;2.20;;;;;;;;;;4805731;29;20051;-83
2024/03/07 11:39:50;;;;;;;7.05;2.22;;;;;;;;;;4809360;29;20058;-83
2024/03/07 11:42:25;;;;;;;3.72;1.92;;;;;;;;;;4825562;29;20529;-84
2024/03/07 11:45:03;;;;;;;5.55;2.00;;;;;;;;;;4825313;29;20046;-83
2024/03/07 11:47:38;;;;;;;4.95;1.98;;;;;;;;;;4809900;29;20046;-85
2024/03/07 11:50:11;;;;;;;4.82;1.90;;;;;;;;;;4841189;29;20048;-83
2024/03/07 11:52:44;;;;;;;7.95;2.42;;;;;;;;;;4826280;29;20053;-86
2024/03/07 11:55:15;;;;;;;5.10;2.42;;;;;;;;;;4843632;29;20050;-85
2024/03/07 11:57:47;;;;;;;5.55;2.20;;;;;;;;;;4841044;29;20054;-85
2024/03/07 12:00:23;;;;;;;6.47;2.28;;;;;;;;;;4790960;29;20062;-84
2024/03/07 12:02:56;;;;;;;4.28;2.25;;;;;;;;;;4807853;29;20059;-84
2024/03/07 12:05:28;;;;;;;6.88;2.20;;;;;;;;;;4835884;29;20069;-89
2024/03/07 12:08:00;;;;;;;5.95;2.10;;;;;;;;;;4825137;29;20053;-83
2024/03/07 12:10:31;;;;;;;5.32;2.08;;;;;;;;;;4828034;29;20050;-84
2024/03/07 12:13:01;;;;;;;8.73;1.92;;;;;;;;;;4810144;29;20050;-83
2024/03/07 12:15:33;;;;;;;4.45;1.70;;;;;;;;;;4824164;29;20081;-84
2024/03/07 12:18:03;;;;;;;;;;;;;;;;;;4824936;29;20057;-85
2024/03/07 12:20:38;;;;;;;3.85;1.70;;;;;;;;;;4823376;29;19924;-84
2024/03/07 12:23:09;;;;;;;4.35;1.63;;;;;;;;;;4824817;29;20058;-84
2024/03/07 12:25:40;;;;;;;6.50;1.80;;;;;;;;;;4824595;29;20053;-81
2024/03/07 12:28:17;;;;;;;2.67;1.58;;;;;;;;;;4824841;29;20058;-82
2024/03/07 12:30:50;;;;;;;3.20;2.17;;;;;;;;;;4842601;29;20429;-83
2024/03/07 12:33:27;;;;;;;6.43;1.75;;;;;;;;;;4843071;29;20837;-81
2024/03/07 12:36:05;;;;;;;4.25;1.63;;;;;;;;;;4842539;29;20061;-82
2024/03/07 12:38:39;;;;;;;2.42;1.30;;;;;;;;;;4842598;29;20069;-82
2024/03/07 12:41:16;;;;;;;2.92;1.42;;;;;;;;;;4828669;29;20502;-82
2024/03/07 12:43:47;;;;;;;5.25;1.70;;;;;;;;;;4824319;29;20073;-82
2024/03/07 12:46:18;;;;;;;6.82;1.67;;;;;;;;;;4813497;29;20057;-85
2024/03/07 12:48:49;;;;;;;5.53;1.60;;;;;;;;;;4835533;29;20065;-83
2024/03/07 12:51:22;;;;;;;6.35;1.67;;;;;;;;;;4824376;29;20074;-83
2024/03/07 12:53:53;;;;;;;5.13;1.30;;;;;;;;;;4829455;29;20061;-84
2024/03/07 12:56:24;;;;;;;3.78;1.70;;;;;;;;;;4842430;29;20505;-81
2024/03/07 12:58:59;;;;;;;3.70;1.50;;;;;;;;;;4842233;29;20057;-84
2024/03/07 13:01:33;;;;;;;4.68;1.67;;;;;;;;;;4841298;29;20058;-83
2024/03/07 13:04:04;;;;;;;4.75;1.42;;;;;;;;;;4839511;29;20050;-81
2024/03/07 13:06:35;;;;;;;2.78;1.52;;;;;;;;;;4824306;29;20051;-82
2024/03/07 13:09:10;;;;;;;4.85;1.13;;;;;;;;;;4808647;29;20540;-82
2024/03/07 13:11:42;;;;;;;2.25;1.23;;;;;;;;;;4830653;29;20046;-81
2024/03/07 13:14:13;;;;;;;2.60;1.30;;;;;;;;;;4842091;29;20069;-81
2024/03/07 13:16:49;;;;;;;1.92;1.23;;;;;;;;;;4842404;29;20049;-81
2024/03/07 13:19:25;;;;;;;3.92;1.30;;;;;;;;;;4839199;29;20509;-83
2024/03/07 13:21:56;;;;;;;3.28;1.38;;;;;;;;;;4805721;29;20063;-81
2024/03/07 13:24:28;;;;;;;1.75;0.93;;;;;;;;;;4806154;29;20490;-82
2024/03/07 13:26:59;;;;;;;5.15;1.30;;;;;;;;;;4810539;29;20061;-81
2024/03/07 13:29:30;;;;;;;5.40;1.52;;;;;;;;;;4808453;29;20050;-81
2024/03/07 13:32:03;;;;;;;7.28;1.40;;;;;;;;;;4806766;29;20058;-81
2024/03/07 13:34:34;;;;;;;2.58;1.15;;;;;;;;;;4827898;29;20061;-82
2024/03/07 13:37:05;;;;;;;2.75;1.20;;;;;;;;;;4826374;29;20064;-81
2024/03/07 13:39:36;;;;;;;3.90;1.15;;;;;;;;;;4828100;29;20064;-82
2024/03/07 13:42:06;;;;;;;1.52;1.02;;;;;;;;;;4844830;29;20049;-82
2024/03/07 13:44:38;;;;;;;13.38;9.60;;;;;;;;;;4844641;29;20493;-83
2024/03/07 13:47:09;;;;;;;5.68;1.30;;;;;;;;;;4843010;29;20061;-81
2024/03/07 13:49:42;;;;;;;2.45;0.90;;;;;;;;;;4814889;29;20055;-80
2024/03/07 13:52:18;;;;;;;35.42;18.00;;;;;;;;;;4834287;29;20593;-81
2024/03/07 13:54:53;;;;;;;60.00;32.03;;;;;;;;;;4847393;29;20049;-81
2024/03/07 13:57:52;;;;;;;7.43;3.03;;;;;;;;;;4855143;29;20038;-79
2024/03/07 14:00:54;;;;;;;4.07;1.42;;;;;;;;;;4836718;29;20050;-82
2024/03/07 14:03:49;;;;;;;8.85;4.60;;;;;;;;;;4834277;29;20506;-81
2024/03/07 14:06:45;;;;;;;5.78;1.83;;;;;;;;;;4823015;29;20490;-82
2024/03/07 14:09:52;;;;;;;5.07;1.35;;;;;;;;;;4830896;29;20528;-83
2024/03/07 14:12:52;;;;;;;22.88;10.15;;;;;;;;;;4840653;29;20517;-83
2024/03/07 14:15:37;;;;;;;10.55;5.03;;;;;;;;;;4828797;29;20054;-82
2024/03/07 14:18:37;;;;;;;4.03;2.05;;;;;;;;;;4844754;29;20046;-83
2024/03/07 14:21:38;;;;;;;3.20;1.20;;;;;;;;;;4829118;29;20053;-81
2024/03/07 14:24:30;;;;;;;2.35;1.10;;;;;;;;;;4843644;29;20042;-85
2024/03/07 14:27:18;;;;;;;5.85;1.23;;;;;;;;;;4831654;29;20046;-84
2024/03/07 14:30:23;;;;;;;3.13;1.05;;;;;;;;;;4823824;29;20038;-82
2024/03/07 14:32:57;;;;;;;3.20;1.33;;;;;;;;;;4819025;29;20046;-82
2024/03/07 14:36:01;;;;;;;2.53;1.20;;;;;;;;;;4845097;29;20050;-84
2024/03/07 14:38:53;;;;;;;4.93;1.08;;;;;;;;;;4837404;29;20062;-85
2024/03/07 14:41:40;;;;;;;1.70;0.93;;;;;;;;;;4816366;29;20370;-86
2024/03/07 14:44:11;;;;;;;1.65;1.00;;;;;;;;;;4825916;29;20510;-83
2024/03/07 14:46:42;;;;;;;1.92;1.02;;;;;;;;;;4819484;29;20054;-81
2024/03/07 14:49:16;;;;;;;11.25;7.65;;;;;;;;;;4803129;29;20070;-83
2024/03/07 14:51:49;;;;;;;6.00;1.70;;;;;;;;;;4826408;29;20518;-83
2024/03/07 14:54:29;;;;;;;3.95;1.50;;;;;;;;;;4821739;29;20038;-81
2024/03/07 14:57:04;;;;;;;3.33;1.05;;;;;;;;;;4827451;29;20043;-82
2024/03/07 14:59:40;;;;;;;7.57;4.30;;;;;;;;;;4806994;29;20059;-84
2024/03/07 15:02:13;;;;;;;3.50;1.52;;;;;;;;;;4812436;29;20157;-83
2024/03/07 15:04:46;;;;;;;4.28;1.17;;;;;;;;;;4816658;29;20050;-83
2024/03/07 15:07:16;;;;;;;5.60;1.38;;;;;;;;;;4835086;29;20057;-81
2024/03/07 15:09:47;;;;;;;5.68;2.35;;;;;;;;;;4843924;29;20053;-82
2024/03/07 15:12:18;;;;;;;1.63;1.00;;;;;;;;;;4844187;29;20050;-82
2024/03/07 15:14:48;;;;;;;1.92;1.05;;;;;;;;;;4827273;29;20058;-80
2024/03/07 15:17:29;;;;;;;4.00;1.10;;;;;;;;;;4814279;29;20114;-83